Time;durP1;ratioP1;P1;durP2;ratioP2;P2;SDS_P1;SDS_P2;PMS_P1;PMS_P2;Temp;Humidity;BMP_temperature;BMP_pressure;BME280_temperature;BME280_humidity;BME280_pressure;Samples;Min_cycle;Max_cycle;Signal;HPM_P1;HPM_P2
2021/11/23 00:00:08;;;;;;;16.20;11.03;;;2.40;99.90;;;;;;5119169;28;20051;-80
2021/11/23 00:02:34;;;;;;;26.27;15.20;;;2.30;99.90;;;;;;5116930;28;20030;-80
2021/11/23 00:05:00;;;;;;;22.37;14.30;;;2.20;99.90;;;;;;5116166;28;20027;-80
2021/11/23 00:07:26;;;;;;;27.93;15.40;;;2.20;99.90;;;;;;5082872;28;20372;-79
2021/11/23 00:09:51;;;;;;;29.93;17.47;;;2.10;99.90;;;;;;5116605;28;20031;-79
2021/11/23 00:12:17;;;;;;;28.67;16.43;;;2.20;99.90;;;;;;5116754;28;20035;-81
2021/11/23 00:14:43;;;;;;;28.53;16.87;;;2.30;99.90;;;;;;5118007;28;20429;-79
2021/11/23 00:17:09;;;;;;;23.60;14.10;;;2.40;99.90;;;;;;5120527;28;20019;-80
2021/11/23 00:19:34;;;;;;;27.10;15.53;;;2.40;99.90;;;;;;5119960;28;20058;-80
2021/11/23 00:22:00;;;;;;;27.60;17.37;;;2.40;99.90;;;;;;5119631;28;20059;-79
2021/11/23 00:24:26;;;;;;;22.73;14.90;;;2.50;99.90;;;;;;5119698;28;20104;-79
2021/11/23 00:26:51;;;;;;;25.40;15.37;;;2.60;99.90;;;;;;5102256;28;20028;-80
2021/11/23 00:29:17;;;;;;;21.90;13.00;;;2.50;99.90;;;;;;5102208;28;20057;-83
2021/11/23 00:31:43;;;;;;;25.43;14.40;;;2.60;99.90;;;;;;5101143;28;20035;-79
2021/11/23 00:34:08;;;;;;;22.90;13.53;;;2.50;99.90;;;;;;5101049;28;20092;-79
2021/11/23 00:36:34;;;;;;;25.53;14.53;;;2.50;99.90;;;;;;5102408;28;20518;-80
2021/11/23 00:39:00;;;;;;;27.63;14.40;;;2.50;99.90;;;;;;5122975;28;20024;-79
2021/11/23 00:41:26;;;;;;;20.33;12.80;;;2.60;99.90;;;;;;5102278;28;20383;-79
2021/11/23 00:43:51;;;;;;;19.80;11.83;;;2.60;99.90;;;;;;5121206;28;20036;-79
2021/11/23 00:46:17;;;;;;;22.63;13.13;;;2.50;99.90;;;;;;5119273;28;20032;-80
2021/11/23 00:48:44;;;;;;;22.17;12.57;;;2.40;99.90;;;;;;5102912;28;20031;-79
2021/11/23 00:51:10;;;;;;;21.20;11.63;;;2.40;99.90;;;;;;5121197;28;20027;-80
2021/11/23 00:53:36;;;;;;;22.67;12.40;;;2.30;99.90;;;;;;5121942;28;20026;-80
2021/11/23 00:56:03;;;;;;;23.37;12.23;;;2.20;99.90;;;;;;5120374;28;20031;-82
2021/11/23 00:58:29;;;;;;;21.57;11.70;;;2.20;99.90;;;;;;5102283;28;20092;-80
2021/11/23 01:00:54;;;;;;;20.63;11.27;;;2.20;99.90;;;;;;5102323;28;20398;-80
2021/11/23 01:03:20;;;;;;;17.03;10.73;;;2.10;99.90;;;;;;5119700;28;20031;-79
2021/11/23 01:05:46;;;;;;;16.37;10.60;;;2.10;99.90;;;;;;5119793;28;20443;-79
2021/11/23 01:08:14;;;;;;;19.43;11.30;;;2.10;99.90;;;;;;5102020;28;20383;-80
2021/11/23 01:10:40;;;;;;;18.40;10.90;;;2.10;99.90;;;;;;5120052;28;20024;-79
2021/11/23 01:13:06;;;;;;;19.40;12.17;;;2.10;99.90;;;;;;5085206;28;20372;-80
2021/11/23 01:15:32;;;;;;;20.77;12.77;;;2.10;99.90;;;;;;5118538;28;20047;-80
2021/11/23 01:17:58;;;;;;;19.60;12.33;;;2.20;99.90;;;;;;5118706;28;20051;-80
2021/11/23 01:20:25;;;;;;;19.13;13.13;;;2.30;99.90;;;;;;5121155;28;20486;-80
2021/11/23 01:22:52;;;;;;;18.40;11.83;;;2.40;99.90;;;;;;5104904;28;20028;-80
2021/11/23 01:25:18;;;;;;;19.00;12.67;;;2.50;99.90;;;;;;5087313;28;20051;-80
2021/11/23 01:27:44;;;;;;;18.30;11.77;;;2.60;99.90;;;;;;5085975;28;20035;-80
2021/11/23 01:30:12;;;;;;;20.23;11.30;;;2.50;99.90;;;;;;5117255;28;20092;-78
2021/11/23 01:32:39;;;;;;;18.80;11.47;;;2.50;99.90;;;;;;5117893;28;20053;-80
2021/11/23 01:35:06;;;;;;;18.03;12.50;;;2.50;99.90;;;;;;5118178;28;20472;-81
2021/11/23 01:37:32;;;;;;;17.23;12.03;;;2.50;99.90;;;;;;5117927;28;20035;-81
2021/11/23 01:39:57;;;;;;;18.63;12.00;;;2.50;99.90;;;;;;5119217;28;20384;-79
2021/11/23 01:42:23;;;;;;;16.77;11.17;;;2.60;99.90;;;;;;5117227;28;20080;-79
2021/11/23 01:44:49;;;;;;;16.07;11.03;;;2.50;99.90;;;;;;5100509;28;20023;-79
2021/11/23 01:47:15;;;;;;;17.40;11.00;;;2.50;99.90;;;;;;5117475;28;20023;-80
2021/11/23 01:49:41;;;;;;;17.40;11.00;;;2.50;99.90;;;;;;5101324;28;20115;-79
2021/11/23 01:52:07;;;;;;;17.60;11.00;;;2.40;99.90;;;;;;5082880;28;20020;-80
2021/11/23 01:54:34;;;;;;;17.80;10.47;;;2.30;99.90;;;;;;5117303;28;20471;-81
2021/11/23 01:57:00;;;;;;;15.07;10.37;;;2.30;99.90;;;;;;5117289;28;20028;-81
2021/11/23 01:59:26;;;;;;;14.30;10.40;;;2.20;99.90;;;;;;5099184;28;20042;-79
2021/11/23 02:01:52;;;;;;;18.70;11.77;;;2.10;99.90;;;;;;5116853;28;20039;-80
2021/11/23 02:04:18;;;;;;;17.77;11.77;;;2.10;99.90;;;;;;5117659;28;20424;-80
2021/11/23 02:06:44;;;;;;;20.03;11.53;;;2.10;99.90;;;;;;5117217;28;20032;-79
2021/11/23 02:09:10;;;;;;;16.17;11.23;;;2.20;99.90;;;;;;5117222;28;20570;-82
2021/11/23 02:11:36;;;;;;;15.33;10.67;;;2.30;99.90;;;;;;5118560;28;20028;-81
2021/11/23 02:14:03;;;;;;;16.13;11.00;;;2.30;99.90;;;;;;5100481;28;20084;-81
2021/11/23 02:16:30;;;;;;;16.33;11.00;;;2.40;99.90;;;;;;5101130;28;20023;-80
2021/11/23 02:18:56;;;;;;;16.60;11.07;;;2.40;99.90;;;;;;5117262;28;20130;-81
2021/11/23 02:21:22;;;;;;;19.07;10.63;;;2.30;99.90;;;;;;5084011;28;20051;-80
2021/11/23 02:23:48;;;;;;;16.93;10.43;;;2.30;99.90;;;;;;5118124;28;20427;-81
2021/11/23 02:26:14;;;;;;;18.13;11.43;;;2.30;99.90;;;;;;5117008;28;20123;-81
2021/11/23 02:28:40;;;;;;;14.57;9.63;;;2.30;99.90;;;;;;5118164;27;20023;-79
2021/11/23 02:31:08;;;;;;;16.60;10.83;;;2.20;99.90;;;;;;5117194;28;20035;-78
2021/11/23 02:33:35;;;;;;;18.50;11.77;;;2.20;99.90;;;;;;5118180;28;20084;-80
2021/11/23 02:36:03;;;;;;;16.00;10.93;;;2.10;99.90;;;;;;5118039;28;20028;-80
2021/11/23 02:38:31;;;;;;;16.13;10.67;;;2.10;99.90;;;;;;5116390;28;20023;-79
2021/11/23 02:40:57;;;;;;;18.50;11.27;;;2.10;99.90;;;;;;5117426;28;20116;-80
2021/11/23 02:43:23;;;;;;;15.17;10.93;;;2.10;99.90;;;;;;5116681;28;20451;-80
2021/11/23 02:45:49;;;;;;;18.27;11.40;;;2.00;99.90;;;;;;5116489;28;20030;-79
2021/11/23 02:48:15;;;;;;;18.00;11.40;;;2.10;99.90;;;;;;5116057;28;20073;-79
2021/11/23 02:50:46;;;;;;;14.60;11.10;;;2.20;99.90;;;;;;5115130;28;20043;-79
2021/11/23 02:53:12;;;;;;;14.83;10.50;;;2.30;99.90;;;;;;5098874;28;20027;-80
2021/11/23 02:55:38;;;;;;;17.20;10.80;;;2.30;99.90;;;;;;5098674;28;20050;-80
2021/11/23 02:58:06;;;;;;;18.10;11.50;;;2.30;99.90;;;;;;5081606;28;20062;-80
2021/11/23 03:00:32;;;;;;;21.90;11.90;;;2.40;99.90;;;;;;5116424;28;20072;-79
2021/11/23 03:02:58;;;;;;;16.63;12.10;;;2.40;99.90;;;;;;5083438;28;20028;-79
2021/11/23 03:05:25;;;;;;;17.27;10.67;;;2.40;99.90;;;;;;5086367;28;20069;-80
2021/11/23 03:07:52;;;;;;;15.63;11.00;;;2.40;99.90;;;;;;5118464;28;20027;-78
2021/11/23 03:10:20;;;;;;;19.60;11.97;;;2.40;99.90;;;;;;5117754;28;20093;-80
2021/11/23 03:12:51;;;;;;;14.60;11.10;;;2.50;99.90;;;;;;5116945;28;20041;-80
2021/11/23 03:15:19;;;;;;;17.37;11.53;;;2.50;99.90;;;;;;5116477;28;20027;-79
2021/11/23 03:17:46;;;;;;;18.07;11.60;;;2.60;99.90;;;;;;5103736;28;20060;-80
2021/11/23 03:20:15;;;;;;;21.03;12.80;;;2.50;99.90;;;;;;5118315;28;20119;-79
2021/11/23 03:22:41;;;;;;;23.20;12.80;;;2.50;99.90;;;;;;5116180;28;20464;-80
2021/11/23 03:25:07;;;;;;;16.93;11.93;;;2.60;99.90;;;;;;5099508;28;20039;-80
2021/11/23 03:27:34;;;;;;;20.57;12.33;;;2.60;99.90;;;;;;5116383;28;20551;-79
2021/11/23 03:29:59;;;;;;;22.17;13.57;;;2.60;99.90;;;;;;5117273;28;20368;-79
2021/11/23 03:32:26;;;;;;;19.60;13.00;;;2.70;99.90;;;;;;5118320;28;20046;-79
2021/11/23 03:34:52;;;;;;;23.63;13.80;;;2.80;99.90;;;;;;5101937;28;20046;-79
2021/11/23 03:37:21;;;;;;;18.93;13.47;;;2.90;99.90;;;;;;5118143;28;20096;-79
2021/11/23 03:39:48;;;;;;;19.07;13.70;;;3.00;99.90;;;;;;5116120;28;20020;-79
2021/11/23 03:42:15;;;;;;;19.87;14.13;;;3.10;99.90;;;;;;5099062;28;20110;-79
2021/11/23 03:44:41;;;;;;;23.10;14.40;;;3.10;99.90;;;;;;5099550;28;20036;-79
2021/11/23 03:47:08;;;;;;;19.97;13.50;;;3.00;99.90;;;;;;5099891;28;20031;-80
2021/11/23 03:49:34;;;;;;;19.30;14.40;;;3.10;99.90;;;;;;5115704;28;20066;-78
2021/11/23 03:52:00;;;;;;;20.87;13.80;;;3.20;99.90;;;;;;5116786;28;20023;-78
2021/11/23 03:54:27;;;;;;;21.57;14.27;;;3.30;99.90;;;;;;5116403;28;20051;-80
2021/11/23 03:56:53;;;;;;;20.63;13.80;;;3.50;99.90;;;;;;5116150;28;20065;-78
2021/11/23 03:59:19;;;;;;;22.60;13.57;;;3.50;99.90;;;;;;5116019;28;20023;-78
2021/11/23 04:01:45;;;;;;;18.73;13.53;;;3.50;99.70;;;;;;5118534;28;20031;-79
2021/11/23 04:04:12;;;;;;;19.23;13.37;;;3.40;99.40;;;;;;5124696;28;20039;-80
2021/11/23 04:06:38;;;;;;;24.60;14.10;;;3.40;99.50;;;;;;5129208;28;20023;-78
2021/11/23 04:09:04;;;;;;;21.00;14.20;;;3.50;99.70;;;;;;5130496;28;20031;-78
2021/11/23 04:11:30;;;;;;;19.20;14.67;;;3.50;99.40;;;;;;5111183;28;20030;-79
2021/11/23 04:13:56;;;;;;;19.57;14.93;;;3.60;99.30;;;;;;5103594;28;20480;-79
2021/11/23 04:16:24;;;;;;;20.93;14.60;;;3.60;99.30;;;;;;5120448;28;20038;-80
2021/11/23 04:18:50;;;;;;;18.93;14.50;;;3.60;99.40;;;;;;5122308;28;20055;-80
2021/11/23 04:21:17;;;;;;;18.30;13.40;;;3.70;99.40;;;;;;5124400;28;20031;-79
2021/11/23 04:23:44;;;;;;;21.57;13.00;;;3.70;99.30;;;;;;5106479;28;20016;-80
2021/11/23 04:26:10;;;;;;;17.00;13.37;;;3.70;99.20;;;;;;5121933;28;20106;-79
2021/11/23 04:28:36;;;;;;;19.33;13.73;;;3.70;99.10;;;;;;5123330;28;20043;-79
2021/11/23 04:31:01;;;;;;;17.60;13.93;;;3.70;99.00;;;;;;5108215;28;20043;-79
2021/11/23 04:33:27;;;;;;;19.60;13.83;;;3.60;98.80;;;;;;5127631;28;20389;-79
2021/11/23 04:35:55;;;;;;;18.43;13.63;;;3.60;98.70;;;;;;5129002;28;20032;-79
2021/11/23 04:38:20;;;;;;;19.50;13.07;;;3.60;98.90;;;;;;5093722;28;20028;-80
2021/11/23 04:40:46;;;;;;;19.73;13.97;;;3.70;99.00;;;;;;5128411;28;20456;-80
2021/11/23 04:43:12;;;;;;;23.30;13.87;;;3.70;98.90;;;;;;5128924;28;20023;-81
2021/11/23 04:45:38;;;;;;;22.53;14.83;;;3.70;98.80;;;;;;5125676;28;20058;-80
2021/11/23 04:48:05;;;;;;;21.57;14.70;;;3.70;98.70;;;;;;5120233;28;20024;-80
2021/11/23 04:50:31;;;;;;;24.57;15.07;;;3.70;98.70;;;;;;5103641;28;20028;-79
2021/11/23 04:52:57;;;;;;;19.20;13.77;;;3.70;98.70;;;;;;5118457;28;20028;-79
2021/11/23 04:55:23;;;;;;;17.13;12.90;;;3.80;98.80;;;;;;5118505;28;20032;-79
2021/11/23 04:57:49;;;;;;;16.10;13.07;;;3.80;98.90;;;;;;5119961;28;20031;-79
2021/11/23 05:00:17;;;;;;;17.80;12.57;;;3.90;99.00;;;;;;5103864;28;20028;-80
2021/11/23 05:02:44;;;;;;;17.03;12.87;;;3.90;98.90;;;;;;5126808;28;20072;-79
2021/11/23 05:05:11;;;;;;;17.30;12.67;;;3.90;99.00;;;;;;5124685;28;20042;-80
2021/11/23 05:07:38;;;;;;;17.27;13.33;;;3.90;98.80;;;;;;5125941;28;20023;-78
2021/11/23 05:10:06;;;;;;;19.20;13.43;;;3.80;98.80;;;;;;5126349;28;20016;-79
2021/11/23 05:12:32;;;;;;;19.43;14.10;;;3.90;98.90;;;;;;5124032;28;20084;-80
2021/11/23 05:14:58;;;;;;;16.73;13.73;;;3.90;98.80;;;;;;5125236;28;20054;-80
2021/11/23 05:17:24;;;;;;;24.77;13.83;;;3.90;98.90;;;;;;5105429;28;20455;-80
2021/11/23 05:19:51;;;;;;;18.17;13.93;;;4.00;99.00;;;;;;5122495;28;20031;-79
2021/11/23 05:22:18;;;;;;;20.67;14.07;;;4.00;99.00;;;;;;5123217;28;20072;-80
2021/11/23 05:24:44;;;;;;;22.73;14.17;;;4.10;99.00;;;;;;5122516;28;20028;-80
2021/11/23 05:27:09;;;;;;;18.57;14.10;;;4.10;99.00;;;;;;5122721;28;20027;-80
2021/11/23 05:29:37;;;;;;;21.73;15.40;;;4.10;98.90;;;;;;5123854;28;20025;-81
2021/11/23 05:32:03;;;;;;;22.17;16.50;;;4.10;99.00;;;;;;5128568;28;20027;-80
2021/11/23 05:34:29;;;;;;;19.93;15.30;;;4.10;99.00;;;;;;5126834;28;20046;-79
2021/11/23 05:36:54;;;;;;;20.53;14.60;;;4.20;99.10;;;;;;5108840;28;20059;-80
2021/11/23 05:39:21;;;;;;;19.10;15.00;;;4.20;99.10;;;;;;5105162;28;20024;-80
2021/11/23 05:41:50;;;;;;;18.53;14.33;;;4.30;99.20;;;;;;5121554;28;20060;-79
2021/11/23 05:44:16;;;;;;;20.83;15.40;;;4.40;99.20;;;;;;5104505;28;20023;-80
2021/11/23 05:46:42;;;;;;;20.73;15.57;;;4.50;99.20;;;;;;5120218;28;20463;-80
2021/11/23 05:49:08;;;;;;;20.67;15.47;;;4.50;99.20;;;;;;5120053;28;20049;-79
2021/11/23 05:51:34;;;;;;;21.07;16.40;;;4.60;99.30;;;;;;5121799;28;20494;-79
2021/11/23 05:54:00;;;;;;;19.97;15.40;;;4.70;99.30;;;;;;5119660;28;20024;-80
2021/11/23 05:56:25;;;;;;;22.37;16.27;;;4.80;99.20;;;;;;5103438;28;20031;-81
2021/11/23 05:58:51;;;;;;;24.70;16.93;;;4.80;99.00;;;;;;5123701;28;20042;-78
2021/11/23 06:01:17;;;;;;;26.43;16.87;;;4.80;98.90;;;;;;5126086;28;20026;-80
2021/11/23 06:03:43;;;;;;;19.87;16.43;;;4.80;98.80;;;;;;5128704;28;20023;-81
2021/11/23 06:06:11;;;;;;;22.47;16.67;;;4.80;98.80;;;;;;5129303;28;20027;-80
2021/11/23 06:08:37;;;;;;;21.80;16.27;;;4.80;99.00;;;;;;5131686;28;20076;-82
2021/11/23 06:11:03;;;;;;;26.53;16.67;;;4.90;99.10;;;;;;5134466;28;20031;-80
2021/11/23 06:13:29;;;;;;;20.40;16.43;;;5.00;99.10;;;;;;5111255;28;20024;-83
2021/11/23 06:15:55;;;;;;;20.97;16.63;;;5.10;99.00;;;;;;5121035;28;20494;-80
2021/11/23 06:18:21;;;;;;;22.40;16.50;;;5.10;98.80;;;;;;5120525;28;20047;-81
2021/11/23 06:20:49;;;;;;;22.43;16.27;;;5.10;98.70;;;;;;5122148;28;20076;-80
2021/11/23 06:23:18;;;;;;;23.30;17.57;;;5.10;98.70;;;;;;5121062;28;20214;-82
2021/11/23 06:25:49;;;;;;;22.20;15.97;;;5.20;98.90;;;;;;5120439;28;20020;-81
2021/11/23 06:28:17;;;;;;;21.70;15.87;;;5.20;98.70;;;;;;5121960;28;20027;-81
2021/11/23 06:30:46;;;;;;;22.83;15.63;;;5.30;98.60;;;;;;5103460;28;20051;-81
2021/11/23 06:33:12;;;;;;;24.30;16.03;;;5.30;98.70;;;;;;5120185;28;20081;-81
2021/11/23 06:35:39;;;;;;;22.63;16.43;;;5.40;98.70;;;;;;5103099;28;20043;-82
2021/11/23 06:38:07;;;;;;;21.90;16.37;;;5.50;98.60;;;;;;5102475;28;20031;-81
2021/11/23 06:40:34;;;;;;;24.47;16.63;;;5.50;98.40;;;;;;5121006;28;20476;-81
2021/11/23 06:43:00;;;;;;;23.17;16.23;;;5.50;98.40;;;;;;5105085;28;20062;-82
2021/11/23 06:45:26;;;;;;;19.03;15.53;;;5.50;98.40;;;;;;5126460;28;20020;-82
2021/11/23 06:47:52;;;;;;;22.37;15.97;;;5.60;98.20;;;;;;5126189;28;20024;-84
2021/11/23 06:50:18;;;;;;;23.33;16.83;;;5.60;98.10;;;;;;5106609;28;20040;-82
2021/11/23 06:52:45;;;;;;;23.33;16.87;;;5.50;98.10;;;;;;5122823;28;20049;-82
2021/11/23 06:55:11;;;;;;;24.70;16.80;;;5.50;98.10;;;;;;5124976;28;20031;-81
2021/11/23 06:57:36;;;;;;;24.50;17.53;;;5.40;97.90;;;;;;5124571;28;20039;-80
2021/11/23 07:00:06;;;;;;;24.63;17.00;;;5.40;98.00;;;;;;5124840;28;20028;-81
2021/11/23 07:02:32;;;;;;;24.10;17.50;;;5.50;98.30;;;;;;5128184;28;20027;-83
2021/11/23 07:04:59;;;;;;;26.30;18.10;;;5.50;98.20;;;;;;5124582;28;20050;-83
2021/11/23 07:07:25;;;;;;;20.63;16.73;;;5.60;98.40;;;;;;5125744;28;20035;-83
2021/11/23 07:09:51;;;;;;;28.37;17.73;;;5.60;98.50;;;;;;5129213;28;20054;-83
2021/11/23 07:12:18;;;;;;;23.30;17.27;;;5.70;98.60;;;;;;5131107;28;20032;-83
2021/11/23 07:14:44;;;;;;;25.47;16.17;;;5.70;98.60;;;;;;5110726;28;20039;-83
2021/11/23 07:17:10;;;;;;;23.53;17.00;;;5.70;98.50;;;;;;5127301;28;20112;-83
2021/11/23 07:19:36;;;;;;;24.80;16.87;;;5.70;98.20;;;;;;5126859;28;20055;-81
2021/11/23 07:22:02;;;;;;;25.40;17.13;;;5.60;98.10;;;;;;5106928;28;20038;-79
2021/11/23 07:24:29;;;;;;;21.63;16.40;;;5.60;98.20;;;;;;5103880;28;20134;-81
2021/11/23 07:26:55;;;;;;;23.57;17.13;;;5.60;98.40;;;;;;5120931;28;20114;-82
2021/11/23 07:29:21;;;;;;;23.47;17.50;;;5.70;98.40;;;;;;5120256;28;20055;-82
2021/11/23 07:31:47;;;;;;;23.50;18.03;;;5.70;98.20;;;;;;5102218;28;20035;-83
2021/11/23 07:34:12;;;;;;;23.70;17.67;;;5.60;98.00;;;;;;5086605;28;20036;-82
2021/11/23 07:36:40;;;;;;;21.47;17.17;;;5.50;97.90;;;;;;5122143;28;20020;-81
2021/11/23 07:39:08;;;;;;;23.50;17.27;;;5.50;98.20;;;;;;5102894;28;20126;-81
2021/11/23 07:41:35;;;;;;;24.13;18.30;;;5.50;98.40;;;;;;5119737;28;20020;-82
2021/11/23 07:44:01;;;;;;;30.00;18.93;;;5.60;98.50;;;;;;5120286;28;20028;-81
2021/11/23 07:46:27;;;;;;;27.33;18.83;;;5.60;98.50;;;;;;5101505;28;20020;-81
2021/11/23 07:48:55;;;;;;;26.70;18.80;;;5.60;98.30;;;;;;5101061;28;20493;-80
2021/11/23 07:51:20;;;;;;;29.33;20.13;;;5.60;98.50;;;;;;5099834;28;20427;-80
2021/11/23 07:53:46;;;;;;;27.70;20.50;;;5.60;98.50;;;;;;5116872;28;20081;-78
2021/11/23 07:56:12;;;;;;;29.20;21.03;;;5.50;98.30;;;;;;5115259;28;20015;-80
2021/11/23 07:58:39;;;;;;;31.70;21.77;;;5.60;98.70;;;;;;5119968;28;20051;-80
2021/11/23 08:01:05;;;;;;;31.33;22.20;;;5.60;98.70;;;;;;5099839;28;20027;-81
2021/11/23 08:03:30;;;;;;;33.53;21.43;;;5.70;98.80;;;;;;5101590;28;20028;-83
2021/11/23 08:05:57;;;;;;;28.23;21.50;;;5.70;98.80;;;;;;5118350;28;20031;-82
2021/11/23 08:08:23;;;;;;;33.73;23.27;;;5.80;98.90;;;;;;5118794;28;20513;-81
2021/11/23 08:10:49;;;;;;;32.57;24.23;;;5.90;99.00;;;;;;5118093;28;20108;-82
2021/11/23 08:13:16;;;;;;;31.40;23.90;;;6.00;98.90;;;;;;5118872;28;20079;-82
2021/11/23 08:15:42;;;;;;;36.67;26.60;;;6.00;98.80;;;;;;5101578;28;20092;-82
2021/11/23 08:18:09;;;;;;;33.90;25.60;;;6.10;99.00;;;;;;5120232;28;20030;-82
2021/11/23 08:20:36;;;;;;;36.17;28.47;;;6.20;98.80;;;;;;5119746;28;20031;-82
2021/11/23 08:23:03;;;;;;;38.00;29.03;;;6.20;98.60;;;;;;5117090;28;20043;-81
2021/11/23 08:25:29;;;;;;;40.20;31.60;;;6.20;98.60;;;;;;5118974;28;20023;-81
2021/11/23 08:27:55;;;;;;;41.83;31.03;;;6.20;98.50;;;;;;5117089;28;20084;-82
2021/11/23 08:30:23;;;;;;;42.73;32.87;;;6.30;98.60;;;;;;5116616;28;20084;-81
2021/11/23 08:32:49;;;;;;;43.17;34.67;;;6.20;98.50;;;;;;5116112;28;20048;-80
2021/11/23 08:35:15;;;;;;;45.83;35.67;;;6.20;98.30;;;;;;5120443;28;20039;-81
2021/11/23 08:37:41;;;;;;;48.20;39.13;;;6.20;98.40;;;;;;5125483;28;20035;-80
2021/11/23 08:40:08;;;;;;;47.77;38.00;;;6.30;98.70;;;;;;5126158;28;20015;-80
2021/11/23 08:42:35;;;;;;;50.87;37.73;;;6.40;98.80;;;;;;5108291;28;20024;-80
2021/11/23 08:45:01;;;;;;;50.27;38.67;;;6.50;98.70;;;;;;5121469;28;20031;-80
2021/11/23 08:47:27;;;;;;;56.93;42.73;;;6.40;98.50;;;;;;5119448;28;20042;-81
2021/11/23 08:49:54;;;;;;;56.27;43.37;;;6.50;98.70;;;;;;5102002;28;20104;-79
2021/11/23 08:52:20;;;;;;;63.13;46.90;;;6.60;98.70;;;;;;5119460;28;20024;-80
2021/11/23 08:54:46;;;;;;;64.77;47.50;;;6.70;99.10;;;;;;5118018;28;20036;-79
2021/11/23 08:57:12;;;;;;;64.23;45.10;;;6.90;99.20;;;;;;5118116;28;20063;-79
2021/11/23 08:59:43;;;;;;;64.27;46.33;;;7.10;99.20;;;;;;5118790;28;20035;-79
2021/11/23 09:02:13;;;;;;;72.23;50.73;;;7.20;99.10;;;;;;5118448;28;20024;-79
2021/11/23 09:04:40;;;;;;;68.50;49.83;;;7.30;99.30;;;;;;5120173;28;20022;-78
2021/11/23 09:07:09;;;;;;;61.17;43.93;;;7.50;99.40;;;;;;5102891;28;20095;-80
2021/11/23 09:09:37;;;;;;;56.97;42.77;;;7.70;99.10;;;;;;5084744;28;20028;-79
2021/11/23 09:12:03;;;;;;;60.70;43.53;;;7.70;98.60;;;;;;5120790;28;20463;-82
2021/11/23 09:14:30;;;;;;;56.90;43.47;;;7.70;98.20;;;;;;5120744;28;20047;-80
2021/11/23 09:16:57;;;;;;;57.20;44.17;;;7.80;98.30;;;;;;5104140;28;20039;-80
2021/11/23 09:19:24;;;;;;;54.30;40.63;;;7.80;98.10;;;;;;5103140;28;20135;-80
2021/11/23 09:21:51;;;;;;;61.73;40.40;;;7.80;97.50;;;;;;5121640;27;20074;-81
2021/11/23 09:24:17;;;;;;;55.70;42.73;;;7.70;97.20;;;;;;5121803;28;20024;-80
2021/11/23 09:26:46;;;;;;;55.13;43.10;;;7.60;97.10;;;;;;5104060;28;20032;-81
2021/11/23 09:29:13;;;;;;;52.47;41.60;;;7.60;97.60;;;;;;5120901;28;20024;-81
2021/11/23 09:31:40;;;;;;;58.00;43.50;;;7.70;97.50;;;;;;5119998;28;20043;-81
2021/11/23 09:34:06;;;;;;;64.80;44.70;;;7.70;97.40;;;;;;5086169;28;20028;-81
2021/11/23 09:36:32;;;;;;;58.97;43.47;;;7.70;97.70;;;;;;5086080;28;20072;-84
2021/11/23 09:38:59;;;;;;;58.07;43.30;;;7.70;97.40;;;;;;5119961;28;20395;-81
2021/11/23 09:41:25;;;;;;;58.70;43.20;;;7.70;97.30;;;;;;5086621;28;20047;-81
2021/11/23 09:43:51;;;;;;;62.50;43.90;;;7.80;97.30;;;;;;5120405;28;20621;-81
2021/11/23 09:46:17;;;;;;;62.20;43.77;;;7.80;97.10;;;;;;5102562;28;20027;-80
2021/11/23 09:48:45;;;;;;;63.07;43.47;;;7.80;97.10;;;;;;5117530;28;20329;-82
2021/11/23 09:51:19;;;;;;;56.30;42.53;;;7.80;97.10;;;;;;5119620;28;20024;-81
2021/11/23 09:53:44;;;;;;;59.50;45.63;;;7.90;97.10;;;;;;5116791;28;20389;-80
2021/11/23 09:56:13;;;;;;;55.27;41.03;;;7.90;96.60;;;;;;5116625;28;20051;-81
2021/11/23 09:58:38;;;;;;;58.60;42.97;;;7.90;96.60;;;;;;5101992;28;20364;-81
2021/11/23 10:01:07;;;;;;;58.20;42.30;;;8.00;96.70;;;;;;5105976;28;20027;-80
2021/11/23 10:03:34;;;;;;;63.47;42.93;;;8.10;96.60;;;;;;5121689;28;20032;-81
2021/11/23 10:06:16;;;;;;;55.80;41.37;;;8.10;96.40;;;;;;5126635;28;20051;-81
2021/11/23 10:08:43;;;;;;;59.10;40.47;;;8.20;96.40;;;;;;5126065;28;20038;-80
2021/11/23 10:11:22;;;;;;;59.93;41.17;;;8.40;96.50;;;;;;5125164;28;20027;-80
2021/11/23 10:13:53;;;;;;;59.80;42.57;;;8.50;96.10;;;;;;5118336;28;20030;-80
2021/11/23 10:16:20;;;;;;;58.63;42.03;;;8.50;96.10;;;;;;5117750;28;20127;-80
2021/11/23 10:18:50;;;;;;;58.77;42.37;;;8.50;96.10;;;;;;5115137;28;20055;-81
2021/11/23 10:21:18;;;;;;;57.07;41.90;;;8.50;96.00;;;;;;5114846;28;20123;-80
2021/11/23 10:23:52;;;;;;;58.20;41.17;;;8.50;95.90;;;;;;5115389;28;20019;-80
2021/11/23 10:26:18;;;;;;;59.63;41.70;;;8.60;96.10;;;;;;5115626;28;20024;-83
2021/11/23 10:28:53;;;;;;;56.47;41.30;;;8.50;95.70;;;;;;5116815;28;20043;-81
2021/11/23 10:31:21;;;;;;;56.20;41.27;;;8.60;96.20;;;;;;5116299;28;20020;-80
2021/11/23 10:33:55;;;;;;;59.60;42.47;;;8.60;96.40;;;;;;5116344;28;20027;-84
2021/11/23 10:36:21;;;;;;;59.20;42.00;;;8.60;96.20;;;;;;5117017;28;20027;-83
2021/11/23 10:38:46;;;;;;;57.33;41.47;;;8.60;96.10;;;;;;5100861;28;20026;-84
2021/11/23 10:41:15;;;;;;;56.87;41.30;;;8.70;96.20;;;;;;5122175;28;20081;-83
2021/11/23 10:43:43;;;;;;;52.67;40.53;;;8.70;96.10;;;;;;5132920;28;20055;-84
2021/11/23 10:46:31;;;;;;;55.10;39.37;;;8.80;96.20;;;;;;5133363;28;20028;-82
2021/11/23 10:48:59;;;;;;;56.93;40.33;;;8.80;96.00;;;;;;5131093;28;20035;-83
2021/11/23 10:51:37;;;;;;;53.13;38.77;;;8.80;95.90;;;;;;5131394;28;20054;-83
2021/11/23 10:54:17;;;;;;;57.60;39.57;;;8.90;96.00;;;;;;5133528;28;20020;-83
2021/11/23 10:56:56;;;;;;;54.10;40.30;;;8.90;96.00;;;;;;5133279;28;20049;-80
2021/11/23 10:59:22;;;;;;;51.80;39.37;;;9.00;96.10;;;;;;5133592;28;20062;-81
2021/11/23 11:01:48;;;;;;;58.20;41.83;;;9.10;96.10;;;;;;5098115;28;20023;-83
2021/11/23 11:04:14;;;;;;;57.30;41.87;;;9.20;96.20;;;;;;5131257;28;20082;-82
2021/11/23 11:06:41;;;;;;;58.40;42.87;;;9.30;95.80;;;;;;5113514;28;20015;-81
2021/11/23 11:09:07;;;;;;;52.53;40.70;;;9.20;95.50;;;;;;5114348;28;20027;-81
2021/11/23 11:11:35;;;;;;;51.40;38.77;;;9.20;95.60;;;;;;5130335;28;20026;-81
2021/11/23 11:14:01;;;;;;;52.97;38.90;;;9.30;95.80;;;;;;5120575;28;20059;-82
2021/11/23 11:16:27;;;;;;;53.50;40.40;;;9.30;95.60;;;;;;5121858;28;20032;-80
2021/11/23 11:19:08;;;;;;;55.00;41.23;;;9.30;95.70;;;;;;5117680;28;20399;-81
2021/11/23 11:22:05;;;;;;;55.87;40.50;;;9.20;95.50;;;;;;5118782;28;20016;-81
2021/11/23 11:24:42;;;;;;;60.00;41.67;;;9.20;95.40;;;;;;5115971;28;20127;-83
2021/11/23 11:27:38;;;;;;;53.93;38.80;;;9.10;95.60;;;;;;5117722;28;20108;-81
2021/11/23 11:30:31;;;;;;;57.30;38.70;;;9.10;95.90;;;;;;5114489;28;20028;-82
2021/11/23 11:33:06;;;;;;;55.38;38.40;;;9.20;96.10;;;;;;5116194;28;20012;-81
2021/11/23 11:35:33;;;;;;;57.03;38.57;;;9.30;96.10;;;;;;5117537;28;20046;-80
2021/11/23 11:38:05;;;;;;;53.37;37.53;;;9.30;96.00;;;;;;5117826;28;20028;-83
2021/11/23 11:40:38;;;;;;;55.63;39.20;;;9.50;95.90;;;;;;5116759;28;20031;-82
2021/11/23 11:43:05;;;;;;;53.70;38.93;;;9.60;95.60;;;;;;5116695;28;20027;-83
2021/11/23 11:45:40;;;;;;;55.97;37.20;;;9.60;95.40;;;;;;5115880;28;20035;-81
2021/11/23 11:48:41;;;;;;;53.53;37.67;;;9.70;95.40;;;;;;5113765;28;20055;-80
2021/11/23 11:51:26;;;;;;;51.10;36.30;;;9.70;95.30;;;;;;5113248;28;20024;-80
2021/11/23 11:53:54;;;;;;;54.00;37.80;;;9.80;95.30;;;;;;5113929;28;20031;-80
2021/11/23 11:56:35;;;;;;;49.90;36.07;;;9.80;95.10;;;;;;5112972;28;20058;-81
2021/11/23 11:59:17;;;;;;;53.83;36.20;;;9.80;95.10;;;;;;5112796;28;20036;-80
2021/11/23 12:01:53;;;;;;;51.43;37.67;;;9.80;95.00;;;;;;5114192;28;20027;-80
2021/11/23 12:04:21;;;;;;;46.57;35.03;;;9.90;94.90;;;;;;5116319;28;20015;-79
2021/11/23 12:06:56;;;;;;;56.77;37.77;;;9.90;95.10;;;;;;5113969;28;20034;-79
2021/11/23 12:09:36;;;;;;;55.03;35.60;;;10.00;95.10;;;;;;5114083;28;20165;-81
2021/11/23 12:12:19;;;;;;;56.57;36.53;;;10.00;95.10;;;;;;5117118;28;20527;-80
2021/11/23 12:14:51;;;;;;;52.87;37.57;;;10.10;94.90;;;;;;5117461;28;20485;-81
2021/11/23 12:17:31;;;;;;;54.53;36.58;;;10.10;94.70;;;;;;5117113;28;20035;-81
2021/11/23 12:20:01;;;;;;;58.63;36.97;;;10.10;94.60;;;;;;5117947;28;20048;-80
2021/11/23 12:22:36;;;;;;;62.47;39.70;;;10.10;94.70;;;;;;5116757;28;20032;-81
2021/11/23 12:25:04;;;;;;;62.40;38.97;;;10.10;94.60;;;;;;5116836;28;20035;-81
2021/11/23 12:27:34;;;;;;;61.30;38.43;;;10.10;94.70;;;;;;5117897;28;20028;-79
2021/11/23 12:30:00;;;;;;;61.33;39.07;;;10.10;94.60;;;;;;5118581;28;20019;-79
2021/11/23 12:32:35;;;;;;;55.07;36.23;;;10.00;94.70;;;;;;5116264;28;20035;-82
2021/11/23 12:35:02;;;;;;;63.17;38.93;;;10.10;94.90;;;;;;5116631;28;20027;-81
2021/11/23 12:37:39;;;;;;;59.70;38.40;;;10.10;94.80;;;;;;5117448;28;20038;-81